sensor_id;sensor_type;location;lat;lon;timestamp;P1;durP1;ratioP1;P2;durP2;ratioP2
48263;SDS011;34086;51.076;13.722;2023-06-22T00:00:44;14.40;;;12.90;;
48263;SDS011;34086;51.076;13.722;2023-06-22T00:01:44;15.00;;;13.02;;
48263;SDS011;34086;51.076;13.722;2023-06-22T00:02:45;14.35;;;12.88;;
48263;SDS011;34086;51.076;13.722;2023-06-22T00:03:45;15.55;;;13.10;;
48263;SDS011;34086;51.076;13.722;2023-06-22T00:04:46;16.70;;;13.30;;
48263;SDS011;34086;51.076;13.722;2023-06-22T00:05:47;14.45;;;12.93;;
48263;SDS011;34086;51.076;13.722;2023-06-22T00:06:48;14.88;;;13.27;;
48263;SDS011;34086;51.076;13.722;2023-06-22T00:07:48;14.55;;;13.05;;
48263;SDS011;34086;51.076;13.722;2023-06-22T00:08:49;15.05;;;13.45;;
48263;SDS011;34086;51.076;13.722;2023-06-22T00:09:50;15.90;;;13.73;;
48263;SDS011;34086;51.076;13.722;2023-06-22T00:10:50;15.93;;;13.45;;
48263;SDS011;34086;51.076;13.722;2023-06-22T00:11:51;16.50;;;13.77;;
48263;SDS011;34086;51.076;13.722;2023-06-22T00:12:51;15.18;;;13.57;;
48263;SDS011;34086;51.076;13.722;2023-06-22T00:13:52;16.52;;;13.82;;
48263;SDS011;34086;51.076;13.722;2023-06-22T00:14:52;15.18;;;13.40;;
48263;SDS011;34086;51.076;13.722;2023-06-22T00:15:53;15.52;;;13.55;;
48263;SDS011;34086;51.076;13.722;2023-06-22T00:16:53;14.50;;;13.00;;
48263;SDS011;34086;51.076;13.722;2023-06-22T00:17:57;15.98;;;13.40;;
48263;SDS011;34086;51.076;13.722;2023-06-22T00:18:58;14.90;;;13.35;;
48263;SDS011;34086;51.076;13.722;2023-06-22T00:20:00;15.82;;;13.40;;
48263;SDS011;34086;51.076;13.722;2023-06-22T00:21:01;17.67;;;13.73;;
48263;SDS011;34086;51.076;13.722;2023-06-22T00:22:01;14.40;;;12.90;;
48263;SDS011;34086;51.076;13.722;2023-06-22T00:23:04;16.55;;;13.82;;
48263;SDS011;34086;51.076;13.722;2023-06-22T00:24:10;17.40;;;14.15;;
48263;SDS011;34086;51.076;13.722;2023-06-22T00:25:11;16.52;;;14.23;;
48263;SDS011;34086;51.076;13.722;2023-06-22T00:26:11;15.57;;;13.98;;
48263;SDS011;34086;51.076;13.722;2023-06-22T00:27:12;15.85;;;13.85;;
48263;SDS011;34086;51.076;13.722;2023-06-22T00:28:13;16.50;;;14.27;;
48263;SDS011;34086;51.076;13.722;2023-06-22T00:29:13;16.55;;;14.40;;
48263;SDS011;34086;51.076;13.722;2023-06-22T00:30:18;16.40;;;14.13;;
48263;SDS011;34086;51.076;13.722;2023-06-22T00:31:19;14.98;;;13.45;;
48263;SDS011;34086;51.076;13.722;2023-06-22T00:32:19;15.32;;;13.73;;
48263;SDS011;34086;51.076;13.722;2023-06-22T00:33:21;17.73;;;14.35;;
48263;SDS011;34086;51.076;13.722;2023-06-22T00:34:21;19.33;;;14.55;;
48263;SDS011;34086;51.076;13.722;2023-06-22T00:35:22;17.95;;;14.40;;
48263;SDS011;34086;51.076;13.722;2023-06-22T00:36:22;16.35;;;13.85;;
48263;SDS011;34086;51.076;13.722;2023-06-22T00:37:24;14.52;;;13.02;;
48263;SDS011;34086;51.076;13.722;2023-06-22T00:38:27;16.15;;;13.70;;
48263;SDS011;34086;51.076;13.722;2023-06-22T00:39:27;16.02;;;13.65;;
48263;SDS011;34086;51.076;13.722;2023-06-22T00:40:28;15.52;;;13.85;;
48263;SDS011;34086;51.076;13.722;2023-06-22T00:41:32;15.75;;;13.38;;
48263;SDS011;34086;51.076;13.722;2023-06-22T00:42:32;16.88;;;13.75;;
48263;SDS011;34086;51.076;13.722;2023-06-22T00:43:33;18.75;;;14.52;;
48263;SDS011;34086;51.076;13.722;2023-06-22T00:44:36;15.95;;;13.95;;
48263;SDS011;34086;51.076;13.722;2023-06-22T00:45:38;15.48;;;13.20;;
48263;SDS011;34086;51.076;13.722;2023-06-22T00:46:38;15.57;;;13.70;;
48263;SDS011;34086;51.076;13.722;2023-06-22T00:47:39;15.77;;;14.07;;
48263;SDS011;34086;51.076;13.722;2023-06-22T00:48:40;15.07;;;13.48;;
48263;SDS011;34086;51.076;13.722;2023-06-22T00:49:44;16.02;;;13.50;;
48263;SDS011;34086;51.076;13.722;2023-06-22T00:50:46;15.80;;;13.80;;
48263;SDS011;34086;51.076;13.722;2023-06-22T00:51:51;17.77;;;13.70;;
48263;SDS011;34086;51.076;13.722;2023-06-22T00:52:53;14.77;;;13.18;;
48263;SDS011;34086;51.076;13.722;2023-06-22T00:53:56;16.05;;;13.20;;
48263;SDS011;34086;51.076;13.722;2023-06-22T00:54:57;16.70;;;13.10;;
48263;SDS011;34086;51.076;13.722;2023-06-22T00:55:58;14.93;;;13.32;;
48263;SDS011;34086;51.076;13.722;2023-06-22T00:56:59;15.25;;;13.70;;
48263;SDS011;34086;51.076;13.722;2023-06-22T00:58:02;15.40;;;13.65;;
48263;SDS011;34086;51.076;13.722;2023-06-22T00:59:10;16.38;;;13.82;;
48263;SDS011;34086;51.076;13.722;2023-06-22T01:00:12;15.40;;;13.73;;
48263;SDS011;34086;51.076;13.722;2023-06-22T01:01:13;16.73;;;14.50;;
48263;SDS011;34086;51.076;13.722;2023-06-22T01:02:14;14.35;;;12.93;;
48263;SDS011;34086;51.076;13.722;2023-06-22T01:03:15;15.50;;;13.18;;
48263;SDS011;34086;51.076;13.722;2023-06-22T01:04:17;16.38;;;13.98;;
48263;SDS011;34086;51.076;13.722;2023-06-22T01:05:19;16.25;;;13.77;;
48263;SDS011;34086;51.076;13.722;2023-06-22T01:06:22;16.48;;;14.55;;
48263;SDS011;34086;51.076;13.722;2023-06-22T01:07:34;15.52;;;13.85;;
48263;SDS011;34086;51.076;13.722;2023-06-22T01:10:38;15.75;;;13.65;;
48263;SDS011;34086;51.076;13.722;2023-06-22T01:11:45;17.02;;;13.55;;
48263;SDS011;34086;51.076;13.722;2023-06-22T01:12:56;15.73;;;13.65;;
48263;SDS011;34086;51.076;13.722;2023-06-22T01:14:18;15.75;;;13.88;;
48263;SDS011;34086;51.076;13.722;2023-06-22T01:15:36;17.55;;;14.35;;
48263;SDS011;34086;51.076;13.722;2023-06-22T01:16:40;14.75;;;13.15;;
48263;SDS011;34086;51.076;13.722;2023-06-22T01:17:43;15.30;;;13.27;;
48263;SDS011;34086;51.076;13.722;2023-06-22T01:18:44;16.88;;;13.68;;
48263;SDS011;34086;51.076;13.722;2023-06-22T01:19:50;17.38;;;14.10;;
48263;SDS011;34086;51.076;13.722;2023-06-22T01:20:57;14.93;;;13.32;;
48263;SDS011;34086;51.076;13.722;2023-06-22T01:21:57;16.30;;;13.73;;
48263;SDS011;34086;51.076;13.722;2023-06-22T01:23:09;16.15;;;14.32;;
48263;SDS011;34086;51.076;13.722;2023-06-22T01:24:37;16.65;;;14.70;;
48263;SDS011;34086;51.076;13.722;2023-06-22T01:26:04;14.68;;;13.18;;
48263;SDS011;34086;51.076;13.722;2023-06-22T01:29:37;16.77;;;14.23;;
48263;SDS011;34086;51.076;13.722;2023-06-22T01:30:39;15.52;;;13.82;;
48263;SDS011;34086;51.076;13.722;2023-06-22T01:31:40;15.52;;;13.45;;
48263;SDS011;34086;51.076;13.722;2023-06-22T01:32:44;16.38;;;14.25;;
48263;SDS011;34086;51.076;13.722;2023-06-22T01:33:48;15.93;;;14.23;;
48263;SDS011;34086;51.076;13.722;2023-06-22T01:34:52;16.42;;;14.65;;
48263;SDS011;34086;51.076;13.722;2023-06-22T01:35:53;16.65;;;14.02;;
48263;SDS011;34086;51.076;13.722;2023-06-22T01:36:53;16.48;;;14.60;;
48263;SDS011;34086;51.076;13.722;2023-06-22T01:37:54;15.77;;;14.07;;
48263;SDS011;34086;51.076;13.722;2023-06-22T01:38:56;17.63;;;14.25;;
48263;SDS011;34086;51.076;13.722;2023-06-22T01:39:58;15.68;;;14.07;;
48263;SDS011;34086;51.076;13.722;2023-06-22T01:40:59;17.98;;;14.43;;
48263;SDS011;34086;51.076;13.722;2023-06-22T01:42:01;15.60;;;14.00;;
48263;SDS011;34086;51.076;13.722;2023-06-22T01:43:03;15.77;;;14.07;;
48263;SDS011;34086;51.076;13.722;2023-06-22T01:44:05;16.58;;;14.75;;
48263;SDS011;34086;51.076;13.722;2023-06-22T01:45:07;15.88;;;14.18;;
48263;SDS011;34086;51.076;13.722;2023-06-22T01:46:11;16.83;;;14.30;;
48263;SDS011;34086;51.076;13.722;2023-06-22T01:47:12;17.50;;;14.57;;
48263;SDS011;34086;51.076;13.722;2023-06-22T01:48:14;15.90;;;14.30;;
48263;SDS011;34086;51.076;13.722;2023-06-22T01:49:15;16.45;;;14.60;;
48263;SDS011;34086;51.076;13.722;2023-06-22T01:50:15;16.95;;;15.18;;
48263;SDS011;34086;51.076;13.722;2023-06-22T01:51:16;16.30;;;14.63;;
48263;SDS011;34086;51.076;13.722;2023-06-22T01:52:17;16.00;;;14.35;;
48263;SDS011;34086;51.076;13.722;2023-06-22T01:53:22;17.10;;;14.52;;
48263;SDS011;34086;51.076;13.722;2023-06-22T01:54:25;16.45;;;14.75;;
48263;SDS011;34086;51.076;13.722;2023-06-22T01:55:26;16.15;;;13.75;;
48263;SDS011;34086;51.076;13.722;2023-06-22T01:56:26;16.80;;;14.63;;
48263;SDS011;34086;51.076;13.722;2023-06-22T01:57:27;18.77;;;14.60;;
48263;SDS011;34086;51.076;13.722;2023-06-22T01:58:28;15.88;;;14.18;;
48263;SDS011;34086;51.076;13.722;2023-06-22T01:59:34;16.20;;;14.48;;
48263;SDS011;34086;51.076;13.722;2023-06-22T02:01:10;20.45;;;15.20;;
48263;SDS011;34086;51.076;13.722;2023-06-22T02:02:12;16.98;;;15.07;;
48263;SDS011;34086;51.076;13.722;2023-06-22T02:03:17;16.52;;;14.82;;
48263;SDS011;34086;51.076;13.722;2023-06-22T02:04:32;18.40;;;15.75;;
48263;SDS011;34086;51.076;13.722;2023-06-22T02:05:43;17.23;;;14.52;;
48263;SDS011;34086;51.076;13.722;2023-06-22T02:06:49;17.52;;;14.68;;
48263;SDS011;34086;51.076;13.722;2023-06-22T02:09:09;16.52;;;14.60;;
48263;SDS011;34086;51.076;13.722;2023-06-22T02:10:14;17.08;;;14.52;;
48263;SDS011;34086;51.076;13.722;2023-06-22T02:11:16;17.63;;;15.45;;
48263;SDS011;34086;51.076;13.722;2023-06-22T02:12:21;16.25;;;14.38;;
48263;SDS011;34086;51.076;13.722;2023-06-22T02:13:24;16.48;;;14.38;;
48263;SDS011;34086;51.076;13.722;2023-06-22T02:14:25;17.48;;;14.45;;
48263;SDS011;34086;51.076;13.722;2023-06-22T02:15:29;18.50;;;14.95;;
48263;SDS011;34086;51.076;13.722;2023-06-22T02:16:30;17.67;;;14.52;;
48263;SDS011;34086;51.076;13.722;2023-06-22T02:17:32;15.88;;;14.20;;
48263;SDS011;34086;51.076;13.722;2023-06-22T02:18:34;15.95;;;14.27;;
48263;SDS011;34086;51.076;13.722;2023-06-22T02:19:36;16.50;;;14.27;;
48263;SDS011;34086;51.076;13.722;2023-06-22T02:20:37;17.20;;;14.68;;
48263;SDS011;34086;51.076;13.722;2023-06-22T02:21:39;16.48;;;13.95;;
48263;SDS011;34086;51.076;13.722;2023-06-22T02:22:40;16.17;;;14.30;;
48263;SDS011;34086;51.076;13.722;2023-06-22T02:23:40;15.52;;;13.93;;
48263;SDS011;34086;51.076;13.722;2023-06-22T02:24:41;17.55;;;14.60;;
48263;SDS011;34086;51.076;13.722;2023-06-22T02:25:41;17.27;;;15.05;;
48263;SDS011;34086;51.076;13.722;2023-06-22T02:26:44;16.42;;;14.50;;
48263;SDS011;34086;51.076;13.722;2023-06-22T02:27:45;16.17;;;14.48;;
48263;SDS011;34086;51.076;13.722;2023-06-22T02:28:46;18.52;;;14.20;;
48263;SDS011;34086;51.076;13.722;2023-06-22T02:29:47;16.13;;;14.43;;
48263;SDS011;34086;51.076;13.722;2023-06-22T02:30:47;15.18;;;13.63;;
48263;SDS011;34086;51.076;13.722;2023-06-22T02:31:48;15.60;;;13.38;;
48263;SDS011;34086;51.076;13.722;2023-06-22T02:32:48;15.98;;;14.13;;
48263;SDS011;34086;51.076;13.722;2023-06-22T02:33:49;16.13;;;14.10;;
48263;SDS011;34086;51.076;13.722;2023-06-22T02:34:53;16.38;;;14.77;;
48263;SDS011;34086;51.076;13.722;2023-06-22T02:35:53;18.17;;;14.68;;
48263;SDS011;34086;51.076;13.722;2023-06-22T02:36:56;16.02;;;13.60;;
48263;SDS011;34086;51.076;13.722;2023-06-22T02:37:57;15.55;;;13.93;;
48263;SDS011;34086;51.076;13.722;2023-06-22T02:39:00;16.17;;;13.98;;
48263;SDS011;34086;51.076;13.722;2023-06-22T02:40:01;15.93;;;13.85;;
48263;SDS011;34086;51.076;13.722;2023-06-22T02:41:04;15.48;;;13.85;;
48263;SDS011;34086;51.076;13.722;2023-06-22T02:42:05;16.35;;;14.02;;
48263;SDS011;34086;51.076;13.722;2023-06-22T02:43:05;17.83;;;14.98;;
48263;SDS011;34086;51.076;13.722;2023-06-22T02:44:06;17.50;;;14.00;;
48263;SDS011;34086;51.076;13.722;2023-06-22T02:45:07;15.50;;;13.85;;
48263;SDS011;34086;51.076;13.722;2023-06-22T02:46:07;17.17;;;14.23;;
48263;SDS011;34086;51.076;13.722;2023-06-22T02:47:08;17.73;;;14.35;;
48263;SDS011;34086;51.076;13.722;2023-06-22T02:48:09;15.95;;;14.23;;
48263;SDS011;34086;51.076;13.722;2023-06-22T02:49:10;16.10;;;14.40;;
48263;SDS011;34086;51.076;13.722;2023-06-22T02:50:11;16.30;;;14.43;;
48263;SDS011;34086;51.076;13.722;2023-06-22T02:51:11;15.85;;;14.05;;
48263;SDS011;34086;51.076;13.722;2023-06-22T02:52:12;16.00;;;14.30;;
48263;SDS011;34086;51.076;13.722;2023-06-22T02:53:13;15.63;;;14.00;;
48263;SDS011;34086;51.076;13.722;2023-06-22T02:54:18;16.38;;;14.68;;
48263;SDS011;34086;51.076;13.722;2023-06-22T02:55:21;17.58;;;15.52;;
48263;SDS011;34086;51.076;13.722;2023-06-22T02:56:28;19.83;;;16.50;;
48263;SDS011;34086;51.076;13.722;2023-06-22T02:57:33;19.33;;;15.75;;
48263;SDS011;34086;51.076;13.722;2023-06-22T02:58:34;19.25;;;16.60;;
48263;SDS011;34086;51.076;13.722;2023-06-22T02:59:41;17.38;;;15.38;;
48263;SDS011;34086;51.076;13.722;2023-06-22T03:00:45;17.20;;;15.18;;
48263;SDS011;34086;51.076;13.722;2023-06-22T03:01:46;18.90;;;14.75;;
48263;SDS011;34086;51.076;13.722;2023-06-22T03:02:53;16.08;;;14.43;;
48263;SDS011;34086;51.076;13.722;2023-06-22T03:03:53;15.82;;;13.52;;
48263;SDS011;34086;51.076;13.722;2023-06-22T03:04:54;16.20;;;14.48;;
48263;SDS011;34086;51.076;13.722;2023-06-22T03:05:55;16.25;;;14.48;;
48263;SDS011;34086;51.076;13.722;2023-06-22T03:06:57;16.63;;;14.80;;
48263;SDS011;34086;51.076;13.722;2023-06-22T03:08:02;15.63;;;13.90;;
48263;SDS011;34086;51.076;13.722;2023-06-22T03:09:06;15.73;;;14.02;;
48263;SDS011;34086;51.076;13.722;2023-06-22T03:10:08;15.40;;;13.77;;
48263;SDS011;34086;51.076;13.722;2023-06-22T03:11:10;15.55;;;13.73;;
48263;SDS011;34086;51.076;13.722;2023-06-22T03:12:11;15.48;;;13.48;;
48263;SDS011;34086;51.076;13.722;2023-06-22T03:13:20;16.15;;;13.55;;
48263;SDS011;34086;51.076;13.722;2023-06-22T03:14:21;15.82;;;14.02;;
48263;SDS011;34086;51.076;13.722;2023-06-22T03:15:22;15.98;;;14.25;;
48263;SDS011;34086;51.076;13.722;2023-06-22T03:16:22;18.08;;;14.73;;
48263;SDS011;34086;51.076;13.722;2023-06-22T03:17:23;16.30;;;14.07;;
48263;SDS011;34086;51.076;13.722;2023-06-22T03:18:25;16.08;;;14.38;;
48263;SDS011;34086;51.076;13.722;2023-06-22T03:19:26;16.85;;;13.68;;
48263;SDS011;34086;51.076;13.722;2023-06-22T03:20:28;15.68;;;14.07;;
48263;SDS011;34086;51.076;13.722;2023-06-22T03:21:33;18.75;;;14.10;;
48263;SDS011;34086;51.076;13.722;2023-06-22T03:22:35;16.88;;;14.52;;
48263;SDS011;34086;51.076;13.722;2023-06-22T03:23:36;16.80;;;14.18;;
48263;SDS011;34086;51.076;13.722;2023-06-22T03:24:36;16.55;;;14.45;;
48263;SDS011;34086;51.076;13.722;2023-06-22T03:25:39;16.05;;;14.13;;
48263;SDS011;34086;51.076;13.722;2023-06-22T03:26:41;15.88;;;13.50;;
48263;SDS011;34086;51.076;13.722;2023-06-22T03:27:41;16.40;;;14.07;;
48263;SDS011;34086;51.076;13.722;2023-06-22T03:28:44;15.18;;;13.55;;
48263;SDS011;34086;51.076;13.722;2023-06-22T03:29:44;15.18;;;13.57;;
48263;SDS011;34086;51.076;13.722;2023-06-22T03:30:45;18.83;;;14.70;;
48263;SDS011;34086;51.076;13.722;2023-06-22T03:31:46;17.05;;;14.60;;
48263;SDS011;34086;51.076;13.722;2023-06-22T03:32:48;17.13;;;14.30;;
48263;SDS011;34086;51.076;13.722;2023-06-22T03:33:49;15.52;;;13.88;;
48263;SDS011;34086;51.076;13.722;2023-06-22T03:34:50;15.75;;;14.05;;
48263;SDS011;34086;51.076;13.722;2023-06-22T03:35:51;15.98;;;14.27;;
48263;SDS011;34086;51.076;13.722;2023-06-22T03:36:51;16.33;;;14.40;;
48263;SDS011;34086;51.076;13.722;2023-06-22T03:37:52;15.68;;;13.98;;
48263;SDS011;34086;51.076;13.722;2023-06-22T03:38:52;16.30;;;14.20;;
48263;SDS011;34086;51.076;13.722;2023-06-22T03:39:53;17.30;;;14.93;;
48263;SDS011;34086;51.076;13.722;2023-06-22T03:40:54;16.42;;;14.70;;
48263;SDS011;34086;51.076;13.722;2023-06-22T03:41:55;16.02;;;14.27;;
48263;SDS011;34086;51.076;13.722;2023-06-22T03:42:57;16.10;;;14.20;;
48263;SDS011;34086;51.076;13.722;2023-06-22T03:43:58;15.02;;;13.50;;
48263;SDS011;34086;51.076;13.722;2023-06-22T03:44:58;17.45;;;14.25;;
48263;SDS011;34086;51.076;13.722;2023-06-22T03:46:01;15.35;;;13.77;;
48263;SDS011;34086;51.076;13.722;2023-06-22T03:47:02;15.35;;;13.75;;
48263;SDS011;34086;51.076;13.722;2023-06-22T03:48:04;17.10;;;14.00;;
48263;SDS011;34086;51.076;13.722;2023-06-22T03:49:05;18.30;;;14.35;;
48263;SDS011;34086;51.076;13.722;2023-06-22T03:50:06;15.45;;;13.77;;
48263;SDS011;34086;51.076;13.722;2023-06-22T03:51:07;15.23;;;13.63;;
48263;SDS011;34086;51.076;13.722;2023-06-22T03:52:07;16.42;;;13.52;;
48263;SDS011;34086;51.076;13.722;2023-06-22T03:53:08;16.27;;;13.90;;
48263;SDS011;34086;51.076;13.722;2023-06-22T03:54:08;16.27;;;13.48;;
48263;SDS011;34086;51.076;13.722;2023-06-22T03:55:09;15.27;;;13.68;;
48263;SDS011;34086;51.076;13.722;2023-06-22T03:56:09;17.73;;;13.93;;
48263;SDS011;34086;51.076;13.722;2023-06-22T03:57:10;15.65;;;13.77;;
48263;SDS011;34086;51.076;13.722;2023-06-22T03:58:11;15.43;;;13.68;;
48263;SDS011;34086;51.076;13.722;2023-06-22T03:59:12;15.48;;;13.88;;
48263;SDS011;34086;51.076;13.722;2023-06-22T04:00:13;16.02;;;13.30;;
48263;SDS011;34086;51.076;13.722;2023-06-22T04:01:15;16.10;;;14.10;;
48263;SDS011;34086;51.076;13.722;2023-06-22T04:02:17;15.60;;;13.80;;
48263;SDS011;34086;51.076;13.722;2023-06-22T04:03:18;15.30;;;13.70;;
48263;SDS011;34086;51.076;13.722;2023-06-22T04:04:19;17.90;;;14.25;;
48263;SDS011;34086;51.076;13.722;2023-06-22T04:05:19;16.17;;;14.35;;
48263;SDS011;34086;51.076;13.722;2023-06-22T04:06:20;15.05;;;13.55;;
48263;SDS011;34086;51.076;13.722;2023-06-22T04:07:22;15.70;;;14.00;;
48263;SDS011;34086;51.076;13.722;2023-06-22T04:08:23;15.05;;;13.45;;
48263;SDS011;34086;51.076;13.722;2023-06-22T04:09:23;15.07;;;13.45;;
48263;SDS011;34086;51.076;13.722;2023-06-22T04:10:24;16.42;;;13.95;;
48263;SDS011;34086;51.076;13.722;2023-06-22T04:11:24;16.73;;;13.68;;
48263;SDS011;34086;51.076;13.722;2023-06-22T04:12:25;16.42;;;13.40;;
48263;SDS011;34086;51.076;13.722;2023-06-22T04:13:29;15.85;;;13.35;;
48263;SDS011;34086;51.076;13.722;2023-06-22T04:14:29;16.08;;;13.77;;
48263;SDS011;34086;51.076;13.722;2023-06-22T04:15:30;16.00;;;14.30;;
48263;SDS011;34086;51.076;13.722;2023-06-22T04:16:31;16.27;;;13.10;;
48263;SDS011;34086;51.076;13.722;2023-06-22T04:17:31;14.98;;;13.15;;
48263;SDS011;34086;51.076;13.722;2023-06-22T04:18:32;15.45;;;13.27;;
48263;SDS011;34086;51.076;13.722;2023-06-22T04:19:32;16.60;;;13.13;;
48263;SDS011;34086;51.076;13.722;2023-06-22T04:20:33;13.27;;;11.88;;
48263;SDS011;34086;51.076;13.722;2023-06-22T04:21:33;13.68;;;12.25;;
48263;SDS011;34086;51.076;13.722;2023-06-22T04:22:34;14.32;;;12.82;;
48263;SDS011;34086;51.076;13.722;2023-06-22T04:23:34;14.20;;;12.70;;
48263;SDS011;34086;51.076;13.722;2023-06-22T04:24:35;13.57;;;12.02;;
48263;SDS011;34086;51.076;13.722;2023-06-22T04:25:36;14.60;;;12.27;;
48263;SDS011;34086;51.076;13.722;2023-06-22T04:26:36;13.40;;;11.90;;
48263;SDS011;34086;51.076;13.722;2023-06-22T04:27:37;15.88;;;13.13;;
48263;SDS011;34086;51.076;13.722;2023-06-22T04:28:40;16.88;;;12.40;;
48263;SDS011;34086;51.076;13.722;2023-06-22T04:29:42;16.23;;;12.85;;
48263;SDS011;34086;51.076;13.722;2023-06-22T04:30:48;16.05;;;12.25;;
48263;SDS011;34086;51.076;13.722;2023-06-22T04:31:50;14.65;;;12.35;;
48263;SDS011;34086;51.076;13.722;2023-06-22T04:32:51;14.00;;;12.50;;
48263;SDS011;34086;51.076;13.722;2023-06-22T04:33:59;13.60;;;12.13;;
48263;SDS011;34086;51.076;13.722;2023-06-22T04:35:06;13.82;;;12.38;;
48263;SDS011;34086;51.076;13.722;2023-06-22T04:36:07;16.48;;;12.68;;
48263;SDS011;34086;51.076;13.722;2023-06-22T04:37:07;13.68;;;12.15;;
48263;SDS011;34086;51.076;13.722;2023-06-22T04:38:08;13.23;;;11.82;;
48263;SDS011;34086;51.076;13.722;2023-06-22T04:39:10;15.93;;;12.57;;
48263;SDS011;34086;51.076;13.722;2023-06-22T04:40:11;14.02;;;12.52;;
48263;SDS011;34086;51.076;13.722;2023-06-22T04:41:14;16.77;;;13.05;;
48263;SDS011;34086;51.076;13.722;2023-06-22T04:42:25;16.65;;;12.88;;
48263;SDS011;34086;51.076;13.722;2023-06-22T04:43:26;15.20;;;12.45;;
48263;SDS011;34086;51.076;13.722;2023-06-22T04:44:30;16.52;;;12.88;;
48263;SDS011;34086;51.076;13.722;2023-06-22T04:45:30;13.82;;;12.43;;
48263;SDS011;34086;51.076;13.722;2023-06-22T04:46:31;16.15;;;13.52;;
48263;SDS011;34086;51.076;13.722;2023-06-22T04:47:34;16.52;;;12.98;;
48263;SDS011;34086;51.076;13.722;2023-06-22T04:48:34;14.15;;;12.30;;
48263;SDS011;34086;51.076;13.722;2023-06-22T04:49:35;12.85;;;11.38;;
48263;SDS011;34086;51.076;13.722;2023-06-22T04:50:40;16.25;;;12.60;;
48263;SDS011;34086;51.076;13.722;2023-06-22T04:51:41;14.68;;;12.30;;
48263;SDS011;34086;51.076;13.722;2023-06-22T04:52:42;13.68;;;12.18;;
48263;SDS011;34086;51.076;13.722;2023-06-22T04:53:42;15.48;;;12.70;;
48263;SDS011;34086;51.076;13.722;2023-06-22T04:54:43;14.55;;;13.05;;
48263;SDS011;34086;51.076;13.722;2023-06-22T04:55:47;15.48;;;12.48;;
48263;SDS011;34086;51.076;13.722;2023-06-22T04:56:49;14.15;;;12.70;;
48263;SDS011;34086;51.076;13.722;2023-06-22T04:57:56;19.33;;;13.18;;
48263;SDS011;34086;51.076;13.722;2023-06-22T04:59:04;14.23;;;12.02;;
48263;SDS011;34086;51.076;13.722;2023-06-22T05:00:05;16.23;;;12.05;;
48263;SDS011;34086;51.076;13.722;2023-06-22T05:01:12;14.40;;;12.23;;
48263;SDS011;34086;51.076;13.722;2023-06-22T05:02:13;14.55;;;12.32;;
48263;SDS011;34086;51.076;13.722;2023-06-22T05:03:13;13.32;;;12.02;;
48263;SDS011;34086;51.076;13.722;2023-06-22T05:04:18;13.85;;;11.90;;
48263;SDS011;34086;51.076;13.722;2023-06-22T05:05:19;12.85;;;11.55;;
48263;SDS011;34086;51.076;13.722;2023-06-22T05:06:19;11.90;;;10.73;;
48263;SDS011;34086;51.076;13.722;2023-06-22T05:07:20;12.73;;;10.65;;
48263;SDS011;34086;51.076;13.722;2023-06-22T05:08:21;12.20;;;11.00;;
48263;SDS011;34086;51.076;13.722;2023-06-22T05:09:21;12.52;;;11.25;;
48263;SDS011;34086;51.076;13.722;2023-06-22T05:10:22;14.77;;;11.65;;
48263;SDS011;34086;51.076;13.722;2023-06-22T05:11:26;12.55;;;11.32;;
48263;SDS011;34086;51.076;13.722;2023-06-22T05:12:27;12.73;;;11.43;;
48263;SDS011;34086;51.076;13.722;2023-06-22T05:13:29;13.45;;;12.15;;
48263;SDS011;34086;51.076;13.722;2023-06-22T05:14:29;13.07;;;11.10;;
48263;SDS011;34086;51.076;13.722;2023-06-22T05:15:30;13.90;;;12.30;;
48263;SDS011;34086;51.076;13.722;2023-06-22T05:16:36;16.25;;;11.95;;
48263;SDS011;34086;51.076;13.722;2023-06-22T05:17:38;19.00;;;12.52;;
48263;SDS011;34086;51.076;13.722;2023-06-22T05:18:42;13.85;;;12.43;;
48263;SDS011;34086;51.076;13.722;2023-06-22T05:19:43;15.27;;;11.98;;
48263;SDS011;34086;51.076;13.722;2023-06-22T05:20:48;14.52;;;12.18;;
48263;SDS011;34086;51.076;13.722;2023-06-22T05:21:49;13.98;;;12.27;;
48263;SDS011;34086;51.076;13.722;2023-06-22T05:22:49;15.27;;;12.98;;
48263;SDS011;34086;51.076;13.722;2023-06-22T05:23:50;16.63;;;13.40;;
48263;SDS011;34086;51.076;13.722;2023-06-22T05:24:51;13.98;;;12.18;;
48263;SDS011;34086;51.076;13.722;2023-06-22T05:25:52;13.70;;;12.13;;
48263;SDS011;34086;51.076;13.722;2023-06-22T05:26:54;15.35;;;12.65;;
48263;SDS011;34086;51.076;13.722;2023-06-22T05:27:55;13.50;;;11.75;;
48263;SDS011;34086;51.076;13.722;2023-06-22T05:28:56;13.70;;;12.30;;
48263;SDS011;34086;51.076;13.722;2023-06-22T05:29:57;13.45;;;11.95;;
48263;SDS011;34086;51.076;13.722;2023-06-22T05:30:58;13.80;;;12.05;;
48263;SDS011;34086;51.076;13.722;2023-06-22T05:31:58;15.63;;;12.27;;
48263;SDS011;34086;51.076;13.722;2023-06-22T05:32:59;14.43;;;12.10;;
48263;SDS011;34086;51.076;13.722;2023-06-22T05:33:59;14.07;;;11.73;;
48263;SDS011;34086;51.076;13.722;2023-06-22T05:35:00;14.00;;;12.13;;
48263;SDS011;34086;51.076;13.722;2023-06-22T05:36:01;13.43;;;12.02;;
48263;SDS011;34086;51.076;13.722;2023-06-22T05:37:02;14.32;;;11.57;;
48263;SDS011;34086;51.076;13.722;2023-06-22T05:38:03;15.93;;;12.27;;
48263;SDS011;34086;51.076;13.722;2023-06-22T05:39:13;14.68;;;11.57;;
48263;SDS011;34086;51.076;13.722;2023-06-22T05:40:14;12.07;;;10.80;;
48263;SDS011;34086;51.076;13.722;2023-06-22T05:41:15;13.65;;;11.18;;
48263;SDS011;34086;51.076;13.722;2023-06-22T05:42:16;13.18;;;11.68;;
48263;SDS011;34086;51.076;13.722;2023-06-22T05:43:16;15.90;;;11.68;;
48263;SDS011;34086;51.076;13.722;2023-06-22T05:44:17;12.40;;;11.10;;
48263;SDS011;34086;51.076;13.722;2023-06-22T05:45:18;12.55;;;11.25;;
48263;SDS011;34086;51.076;13.722;2023-06-22T05:46:18;12.02;;;10.82;;
48263;SDS011;34086;51.076;13.722;2023-06-22T05:47:19;13.30;;;11.20;;
48263;SDS011;34086;51.076;13.722;2023-06-22T05:48:20;12.55;;;11.13;;
48263;SDS011;34086;51.076;13.722;2023-06-22T05:49:21;14.15;;;10.85;;
48263;SDS011;34086;51.076;13.722;2023-06-22T05:50:22;13.82;;;11.48;;
48263;SDS011;34086;51.076;13.722;2023-06-22T05:51:23;14.00;;;12.07;;
48263;SDS011;34086;51.076;13.722;2023-06-22T05:52:23;14.23;;;11.65;;
48263;SDS011;34086;51.076;13.722;2023-06-22T05:53:24;14.05;;;11.80;;
48263;SDS011;34086;51.076;13.722;2023-06-22T05:54:24;15.23;;;11.75;;
48263;SDS011;34086;51.076;13.722;2023-06-22T05:55:25;13.43;;;11.68;;
48263;SDS011;34086;51.076;13.722;2023-06-22T05:56:26;13.63;;;11.70;;
48263;SDS011;34086;51.076;13.722;2023-06-22T05:57:26;13.75;;;11.50;;
48263;SDS011;34086;51.076;13.722;2023-06-22T05:58:27;13.43;;;11.45;;
48263;SDS011;34086;51.076;13.722;2023-06-22T05:59:27;14.77;;;11.80;;
48263;SDS011;34086;51.076;13.722;2023-06-22T06:00:28;15.07;;;11.25;;
48263;SDS011;34086;51.076;13.722;2023-06-22T06:01:28;13.38;;;11.52;;
48263;SDS011;34086;51.076;13.722;2023-06-22T06:02:31;13.90;;;11.35;;
48263;SDS011;34086;51.076;13.722;2023-06-22T06:03:31;14.98;;;11.60;;
48263;SDS011;34086;51.076;13.722;2023-06-22T06:04:32;14.35;;;11.25;;